Nearby METAR Reports

CWGD - Goderich (autob), Ontario, Canada
Distance from station: SW 47km
Updated: 06/02/2020 7:00am

 Wind from S
Wind: S 17 km/h
Temperature: 13°C
Dew Point: 11°C
Humidity: 88%
2020/06/02 11:00 CWGD 021100Z AUTO 17009KT 13/11 RMK AO1 2PAST HR 6022 SLP138 P0001 T01330113 50024
CWLS - Mount Forest(Mar, Ontario, Canada
Distance from station: ESE 53km
Updated: 06/02/2020 7:00am

 Wind from SSW
Wind: SSW 13 km/h
Temperature: 13°C
Dew Point: 10°C
Humidity: 82%
2020/06/02 11:00 CWLS 021100Z AUTO 21007KT 13/10 RMK AO1 6025 SLP143 T01250101 50008
 
CYVV - Wiarton Air, Ontario, Canada
Distance from station: NNE 75km
Updated: 06/02/2020 7:00am
Overcast
Overcast
 Wind from S
Wind: S 13 km/h
Temperature: 13°C
Dew Point: 12°C
Humidity: 94%
Barometer: 1011.5 hPa
Clouds: Overcast
Visibility: 24 km
Cloud details: Partly cloudy 914 m
Overcast 2134 m
2020/06/02 11:00 CYVV 021100Z 19007KT 15SM SCT030 OVC070 13/12 A2987 RMK SC3AC5 SLP119 DENSITY ALT 800FT
CZEL - Elora Rcs, Ontario, Canada
Distance from station: ESE 93km
Updated: 06/02/2020 7:00am

 Wind from SSW
Wind: SSW 11 km/h
Temperature: 12°C
Dew Point: 11°C
Humidity: 94%
2020/06/02 11:00 CZEL 021100Z AUTO 21006KT 12/11 RMK AO1 6025 SLP155 T01210106 50004
 
CWCO - Collingwood (aut, Ontario, Canada
Distance from station: ENE 104km
Updated: 06/02/2020 7:00am

 Wind from SE
Wind: SE 6 km/h
Temperature: 13°C
Dew Point: 12°C
Humidity: 94%
2020/06/02 11:00 CWCO 021100Z AUTO 14003KT 13/12 RMK AO1 7025 SLP120 T01250119 50002
CYKF - Waterloo Well, Ontario, Canada
Distance from station: SE 107km
Updated: 06/02/2020 7:00am
Overcast
Overcast
 Wind from SSW
Wind: SSW 11 km/h
Temperature: 13°C
Dew Point: 11°C
Humidity: 88%
Barometer: 1014.6 hPa
Clouds: Overcast
Visibility: 14 km
Cloud details: Overcast 975 m
2020/06/02 11:00 CYKF 021100Z AUTO 20006KT 9SM OVC032 13/11 A2996 RMK SLP145
 
KP58 - Port Hope, Michigan, USA
Distance from station: W 114km
Updated: 06/02/2020 6:51am

 Wind from S
Wind: S 9 km/h
Temperature: 15°C
Dew Point: 12°C
Humidity: 82%
Barometer: 1010.8 hPa
2020/06/02 10:51 KP58 021051Z AUTO 17005KT 15/12 A2985 RMK AO1 SLP105 T01500117
CYBN - Borden, Ontario, Canada
Distance from station: E 118km
Updated: 06/02/2020 7:12am
Light rain, Overcast
Light rain, Overcast
 Wind from SSE
Wind: SSE 9 km/h
Temperature: 13°C
Dew Point: 12°C
Humidity: 94%
Barometer: 1012.9 hPa
Summary: Light rain
Clouds: Overcast
Visibility: 14 km
Cloud details: Overcast 1067 m
Overcast 1646 m
Overcast 2103 m
2020/06/02 11:12 CYBN 021112Z AUTO 15005KT 9SM -RA OVC035 OVC054 OVC069 13/12 A2991
 
CYXU - London Airport, Ontario, Canada
Distance from station: S 123km
Updated: 06/02/2020 7:00am
Light rain, Showers, Mist, Overcast
Light rain, Showers, Mist, Overcast
 Wind from SSE
Wind: SSE 22 km/h
Temperature: 12°C
Dew Point: 11°C
Humidity: 94%
Barometer: 1014.6 hPa
Summary: Light rain, Showers, Mist
Clouds: Overcast
Visibility: 6 km
Cloud details: Overcast 1494 m
2020/06/02 11:00 CYXU 021100Z 16012KT 4SM -SHRA BR OVC049 12/11 A2996 RMK SC8 CVCTV CLD EMBD SLP148
CXET - Egbert Cs, Ontario, Canada
Distance from station: E 128km
Updated: 06/02/2020 7:00am

 Wind from SSE
Wind: SSE 7 km/h
Temperature: 13°C
Dew Point: 10°C
Humidity: 82%
2020/06/02 11:00 CXET 021100Z AUTO 15004KT 13/10 RMK AO1 8022 SLP141 T01270095 50008
 
CWMZ - Western Isl (map, Ontario, Canada
Distance from station: NE 129km
Updated: 06/02/2020 6:00am
NOT Current

 Wind from S
Wind: S 26 km/h
Temperature: 10°C
Wind Chill: 7°C
Dew Point: 10°C
Humidity: 100%
2020/06/02 10:00 CWMZ 021000Z AUTO 17014KT 10/10 RMK AO1 SLP125 T00990096 58022
KBAX - Bad Axe, Michigan, USA
Distance from station: WSW 133km
Updated: 06/02/2020 7:16am
Overcast
Overcast
 Wind from SSW
Wind: SSW 11 km/h
Temperature: 16°C
Dew Point: 12°C
Humidity: 77%
Barometer: 1011.5 hPa
Clouds: Overcast
Visibility: 16 km
Cloud details: Overcast 1829 m
2020/06/02 11:16 KBAX 021116Z AUTO 20006KT 10SM OVC060 16/12 A2987 RMK AO2 T01550122
 
CWWX - Cove Island (map, Ontario, Canada
Distance from station: NNW 137km
Updated: 06/02/2020 6:00am
NOT Current

 Wind from SW
Wind: SW 19 km/h, Gust: 33 km/h
Temperature: 10°C
Wind Chill: 7°C
Dew Point: 10°C
Humidity: 100%
2020/06/02 10:00 CWWX 021000Z AUTO 22010G18KT 10/10 RMK AO1 PK WND 23018/0944 SLP106 T01040098 56028
CYZR - Sarnia Airport, Ontario, Canada
Distance from station: SSW 144km
Updated: 06/02/2020 7:00am
Overcast
Overcast
 Wind from S
Wind: S 24 km/h, Gust: 35 km/h
Temperature: 14°C
Dew Point: 11°C
Humidity: 82%
Barometer: 1013.2 hPa
Clouds: Overcast
Visibility: 14 km
Cloud details: Few Clouds 1402 m
Partly cloudy 1829 m
Mostly cloudy 2377 m
Overcast 2865 m
2020/06/02 11:00 CYZR 021100Z AUTO 17013G19KT 9SM FEW046 SCT060 BKN078 OVC094 14/11 A2992 RMK SLP132
 
CXHM - Hamilton Rbg Cs, Ontario, Canada
Distance from station: SE 150km
Updated: 06/02/2020 7:00am

 Wind from W
Wind: W 4 km/h
Temperature: 14°C
Dew Point: 11°C
Humidity: 82%
2020/06/02 11:00 CXHM 021100Z AUTO 27002KT 14/11 RMK AO1 SLP145 T01430112 56023
CYYZ - Toronto/Pearson, Ontario, Canada
Distance from station: ESE 150km
Updated: 06/02/2020 7:00am
Overcast
Overcast
 Wind from SE
Wind: SE 11 km/h
Temperature: 13°C
Dew Point: 11°C
Humidity: 88%
Barometer: 1014.6 hPa
Clouds: Overcast
Visibility: 24 km
Cloud details: Partly cloudy 1067 m
Overcast 1311 m
2020/06/02 11:00 CYYZ 021100Z 14006KT 15SM SCT035 OVC043 13/11 A2996 RMK SC4SC4 SLP147
 
CXBI - Barrie-Oro, Ontario, Canada
Distance from station: ENE 151km
Updated: 06/02/2020 7:00am

 Wind from SSE
Wind: SSE 6 km/h
Temperature: 12°C
Dew Point: 11°C
Humidity: 94%
2020/06/02 11:00 CXBI 021100Z AUTO 16003KT 12/11 RMK AO1 SLP138 T01220109 58016
CXDI - Delhi Cs (aut), Ontario, Canada
Distance from station: SSE 154km
Updated: 06/02/2020 7:00am

 Wind from S
Wind: S 13 km/h
Temperature: 13°C
Dew Point: 11°C
Humidity: 88%
2020/06/02 11:00 CXDI 021100Z AUTO 19007KT 13/11 RMK AO1 SLP161 T01290107 56027
 
CWWB - Burlington Piers, Ontario, Canada
Distance from station: SE 157km
Updated: 06/02/2020 7:00am

 Wind from SSW
Wind: SSW 9 km/h
Temperature: 15°C
Dew Point: 11°C
Humidity: 77%
2020/06/02 11:00 CWWB 021100Z AUTO 20005KT 15/11 RMK AO1 SLP144 T01540107 58026
CYHM - Hamilton Airport, Ontario, Canada
Distance from station: SE 157km
Updated: 06/02/2020 7:00am
Overcast
Overcast
 Wind from SSW
Wind: SSW 17 km/h
Temperature: 13°C
Dew Point: 11°C
Humidity: 88%
Barometer: 1014.9 hPa
Clouds: Overcast
Visibility: 24 km
Cloud details: Overcast 1433 m
2020/06/02 11:00 CYHM 021100Z 21009KT 15SM OVC047 13/11 A2997 RMK SC8 SLP151